Yosho Maru — JD3964 — position and weather

sailwx.info

Track history (hours):
 
Tides and Currents Weather Stations Pressure Air Temp Water Temp Dewpoint Dewpoint Depression Visibility Wind Speed Wind Dir Waves Ship Positions

Yosho Maru

Last reported at 2018-Jan-18 13:26 UTC. Time now 2018-Jan-19 07:28 UTC.
Position N 34°21' E 134°23'.

Length 55 m; draft 4 m.

Type: Cargo ship. MMSI: 431007294.

Date/timePositionNaut miles runAvg speedWind from/ knotsBaromVisibWave heightAir tempDewpointWater temp
2018-Jan-18 13:26N 34°21' E 134°23'611.4
2018-Jan-18 12:53N 34°19' E 134°30'411.9
2018-Jan-18 12:30N 34°17' E 134°35'611.5
2018-Jan-18 12:00N 34°13' E 134°40'712.0
2018-Jan-18 11:26N 34°08' E 134°46'511.4
2018-Jan-18 11:00N 34°04' E 134°50'611.4
2018-Jan-18 10:31N 34°00' E 134°55'611.4
2018-Jan-18 10:00N 33°56' E 134°59'611.3
2018-Jan-18 09:30N 33°51' E 135°04'  
2018-Jan-11 15:09N 34°18' E 134°30'210.9
2018-Jan-11 14:59N 34°18' E 134°32'610.9
2018-Jan-11 14:25N 34°15' E 134°39'810.3
2018-Jan-11 13:42N 34°09' E 134°44'210.1
2018-Jan-11 13:29N 34°08' E 134°46'510.2
2018-Jan-11 13:00N 34°04' E 134°50'510.3
2018-Jan-11 12:29N 34°00' E 134°54'510.3
2018-Jan-11 12:00N 33°56' E 134°58'5 9.6
2018-Jan-11 11:30N 33°53' E 135°02'98 7.2
2018-Jan-10 21:59N 34°29' E 136°52'1 2.0
2018-Jan-10 21:27N 34°30' E 136°51'0 0.0
2018-Jan-10 21:00N 34°30' E 136°51'0 0.0
2018-Jan-10 20:29N 34°30' E 136°51'0 0.0
2018-Jan-10 20:00N 34°30' E 136°51'0 0.1
2018-Jan-10 19:30N 34°30' E 136°51'0 0.1
2018-Jan-10 18:53N 34°30' E 136°51'0 0.0
2018-Jan-10 18:22N 34°30' E 136°51'0 0.0
2018-Jan-10 17:58N 34°30' E 136°51'0 0.0
2018-Jan-10 17:27N 34°30' E 136°51'0 0.0
2018-Jan-10 16:56N 34°30' E 136°51'0 0.0
2018-Jan-10 16:23N 34°30' E 136°51'0 0.0
2018-Jan-10 15:58N 34°30' E 136°51'0 0.0
2018-Jan-10 15:28N 34°30' E 136°51'0 0.0
2018-Jan-10 15:00N 34°30' E 136°51'0 0.0
2018-Jan-10 14:28N 34°30' E 136°51'0 0.0
2018-Jan-10 13:58N 34°30' E 136°51'0 0.0
2018-Jan-10 13:29N 34°30' E 136°51'0 0.0
2018-Jan-10 13:00N 34°30' E 136°51'0 0.0
2018-Jan-10 12:30N 34°30' E 136°51'0 0.0
2018-Jan-10 12:00N 34°30' E 136°51'0 0.0
2018-Jan-10 11:30N 34°30' E 136°51'0 0.0
2018-Jan-10 10:57N 34°30' E 136°51'0 0.1
2018-Jan-10 10:30N 34°30' E 136°51'0 0.1
2018-Jan-10 10:00N 34°30' E 136°51'0 0.0
2018-Jan-10 09:29N 34°30' E 136°51'0 0.1
2018-Jan-10 08:59N 34°30' E 136°51'0 0.1
2018-Jan-10 08:29N 34°30' E 136°51'0 0.0
2018-Jan-10 07:59N 34°30' E 136°51'0 0.1
2018-Jan-10 07:30N 34°30' E 136°51'0 0.0
2018-Jan-10 07:00N 34°30' E 136°51'0 0.0
2018-Jan-10 06:30N 34°30' E 136°51'2 2.8
2018-Jan-10 05:52N 34°31' E 136°49'411.4
2018-Jan-10 05:29N 34°35' E 136°48'612.0
2018-Jan-10 05:00N 34°41' E 136°47'611.9
2018-Jan-10 04:30N 34°46' E 136°46'611.7
2018-Jan-10 04:00N 34°52' E 136°46'510.6
2018-Jan-10 03:30N 34°57' E 136°47'510.5
2018-Jan-10 03:01N 35°02' E 136°51'3 0.1
2018-Jan-08 22:42N 35°04' E 136°53'0 0.1
2018-Jan-08 22:31N 35°04' E 136°53'0 0.0
2018-Jan-08 22:01N 35°04' E 136°53'0 0.0
2018-Jan-08 21:30N 35°04' E 136°53'0 0.0
2018-Jan-08 21:00N 35°04' E 136°53'0 0.0
2018-Jan-08 20:31N 35°04' E 136°53'0 0.0
2018-Jan-08 20:00N 35°04' E 136°53'0 0.0
2018-Jan-08 19:30N 35°04' E 136°53'0 0.0
2018-Jan-08 19:01N 35°04' E 136°53'0 0.0
2018-Jan-08 18:31N 35°04' E 136°53'0 0.0
2018-Jan-08 18:01N 35°04' E 136°53'0 0.0
2018-Jan-08 17:30N 35°04' E 136°53'0 0.0
2018-Jan-08 17:01N 35°04' E 136°53'0 0.0
2018-Jan-08 16:31N 35°04' E 136°53'0 0.0
2018-Jan-08 16:01N 35°04' E 136°53'0 0.0
2018-Jan-08 15:31N 35°04' E 136°53'0 0.0
2018-Jan-08 15:01N 35°04' E 136°53'0 0.0
2018-Jan-08 14:31N 35°04' E 136°53'0 0.0
2018-Jan-08 14:01N 35°04' E 136°53'0 0.0
2018-Jan-08 13:31N 35°04' E 136°53'  
Track history (hours):
 
Tides and Currents Weather Stations Pressure Air Temp Water Temp Dewpoint Dewpoint Depression Visibility Wind Speed Wind Dir Waves Ship Positions

Yosho Maru

Last reported at 2018-Jan-18 13:26 UTC. Time now 2018-Jan-19 07:28 UTC.
Position N 34°21' E 134°23'.

Length 55 m; draft 4 m.

Type: Cargo ship. MMSI: 431007294.

Date/timePositionNaut miles runAvg speedWind from/ knotsBaromVisibWave heightAir tempDewpointWater temp
2018-Jan-18 13:26N 34°21' E 134°23'611.4
2018-Jan-18 12:53N 34°19' E 134°30'411.9
2018-Jan-18 12:30N 34°17' E 134°35'611.5
2018-Jan-18 12:00N 34°13' E 134°40'712.0
2018-Jan-18 11:26N 34°08' E 134°46'511.4
2018-Jan-18 11:00N 34°04' E 134°50'611.4
2018-Jan-18 10:31N 34°00' E 134°55'611.4
2018-Jan-18 10:00N 33°56' E 134°59'611.3
2018-Jan-18 09:30N 33°51' E 135°04'  
2018-Jan-11 15:09N 34°18' E 134°30'210.9
2018-Jan-11 14:59N 34°18' E 134°32'610.9
2018-Jan-11 14:25N 34°15' E 134°39'810.3
2018-Jan-11 13:42N 34°09' E 134°44'210.1
2018-Jan-11 13:29N 34°08' E 134°46'510.2
2018-Jan-11 13:00N 34°04' E 134°50'510.3
2018-Jan-11 12:29N 34°00' E 134°54'510.3
2018-Jan-11 12:00N 33°56' E 134°58'5 9.6
2018-Jan-11 11:30N 33°53' E 135°02'98 7.2
2018-Jan-10 21:59N 34°29' E 136°52'1 2.0
2018-Jan-10 21:27N 34°30' E 136°51'0 0.0
2018-Jan-10 21:00N 34°30' E 136°51'0 0.0
2018-Jan-10 20:29N 34°30' E 136°51'0 0.0
2018-Jan-10 20:00N 34°30' E 136°51'0 0.1
2018-Jan-10 19:30N 34°30' E 136°51'0 0.1
2018-Jan-10 18:53N 34°30' E 136°51'0 0.0
2018-Jan-10 18:22N 34°30' E 136°51'0 0.0
2018-Jan-10 17:58N 34°30' E 136°51'0 0.0
2018-Jan-10 17:27N 34°30' E 136°51'0 0.0
2018-Jan-10 16:56N 34°30' E 136°51'0 0.0
2018-Jan-10 16:23N 34°30' E 136°51'0 0.0
2018-Jan-10 15:58N 34°30' E 136°51'0 0.0
2018-Jan-10 15:28N 34°30' E 136°51'0 0.0
2018-Jan-10 15:00N 34°30' E 136°51'0 0.0
2018-Jan-10 14:28N 34°30' E 136°51'0 0.0
2018-Jan-10 13:58N 34°30' E 136°51'0 0.0
2018-Jan-10 13:29N 34°30' E 136°51'0 0.0
2018-Jan-10 13:00N 34°30' E 136°51'0 0.0
2018-Jan-10 12:30N 34°30' E 136°51'0 0.0
2018-Jan-10 12:00N 34°30' E 136°51'0 0.0
2018-Jan-10 11:30N 34°30' E 136°51'0 0.0
2018-Jan-10 10:57N 34°30' E 136°51'0 0.1
2018-Jan-10 10:30N 34°30' E 136°51'0 0.1
2018-Jan-10 10:00N 34°30' E 136°51'0 0.0
2018-Jan-10 09:29N 34°30' E 136°51'0 0.1
2018-Jan-10 08:59N 34°30' E 136°51'0 0.1
2018-Jan-10 08:29N 34°30' E 136°51'0 0.0
2018-Jan-10 07:59N 34°30' E 136°51'0 0.1
2018-Jan-10 07:30N 34°30' E 136°51'0 0.0
2018-Jan-10 07:00N 34°30' E 136°51'0 0.0
2018-Jan-10 06:30N 34°30' E 136°51'2 2.8
2018-Jan-10 05:52N 34°31' E 136°49'411.4
2018-Jan-10 05:29N 34°35' E 136°48'612.0
2018-Jan-10 05:00N 34°41' E 136°47'611.9
2018-Jan-10 04:30N 34°46' E 136°46'611.7
2018-Jan-10 04:00N 34°52' E 136°46'510.6
2018-Jan-10 03:30N 34°57' E 136°47'510.5
2018-Jan-10 03:01N 35°02' E 136°51'3 0.1
2018-Jan-08 22:42N 35°04' E 136°53'0 0.1
2018-Jan-08 22:31N 35°04' E 136°53'0 0.0
2018-Jan-08 22:01N 35°04' E 136°53'0 0.0
2018-Jan-08 21:30N 35°04' E 136°53'0 0.0
2018-Jan-08 21:00N 35°04' E 136°53'0 0.0
2018-Jan-08 20:31N 35°04' E 136°53'0 0.0
2018-Jan-08 20:00N 35°04' E 136°53'0 0.0
2018-Jan-08 19:30N 35°04' E 136°53'0 0.0
2018-Jan-08 19:01N 35°04' E 136°53'0 0.0
2018-Jan-08 18:31N 35°04' E 136°53'0 0.0
2018-Jan-08 18:01N 35°04' E 136°53'0 0.0
2018-Jan-08 17:30N 35°04' E 136°53'0 0.0
2018-Jan-08 17:01N 35°04' E 136°53'0 0.0
2018-Jan-08 16:31N 35°04' E 136°53'0 0.0
2018-Jan-08 16:01N 35°04' E 136°53'0 0.0
2018-Jan-08 15:31N 35°04' E 136°53'0 0.0
2018-Jan-08 15:01N 35°04' E 136°53'0 0.0
2018-Jan-08 14:31N 35°04' E 136°53'0 0.0
2018-Jan-08 14:01N 35°04' E 136°53'0 0.0
2018-Jan-08 13:31N 35°04' E 136°53'  

Dump ship's entire track history